Terminal Aerodrome Forecast
Issued by NWS

Home | Current Version | Previous Version | Graphics & Text | Print | Product List | Glossary On
Versions: 1 2 3 4 5 6 7 8 9 10 11 12 13 14 15 16 17
000
FTUS43 KMPX 171700
TAFRWF
TAF
KRWF 171735Z 1718/1818 33018G28KT P6SM OVC018
     FM172200 33015G22KT P6SM BKN025
     FM180200 32007KT P6SM OVC020
     FM181400 34004KT P6SM SCT020=

USA.gov is the U.S. government's official web portal to all federal, state and local government web resources and services.